罗盘
风向 的 风向 的 风向 到 风向 350° De Peel Air Base 6/24
风: 3 kt, 1 beaufort

1 kt

3 kt
改变
0 1.000 2.000 3.000 4.000 5.000
FEW 300 ft
SCT 400 ft
BKN 500 ft
FEW 1.500 ft
METAR EHEH 171326Z AUTO 35003KT 290V020 3800 -RA FEW003 SCT004 BKN005 FEW015CB 20/20 Q1011 YLO TEMPO 2500 SHRA RA FEW004 SCT006 SCT050CB

METAR De Peel Air Base - EHDP

De Peel Air Base是Venray,荷兰中的小机场。 该机场有一条跑道: 6/24. 该领域的国际民航组织标志是EHDP.

这份报告是针对2022年8月17日 15:26, 当地时间在Eindhoven Airport进行的。

机场观察

风向为350°,速度为3 kt。 风向在290°和020°之间变化。

可见度为3,8 km。

有几云在300 ft的高度, 疏云,零星散落的云朵在400 ft的高度, 碎云在500 ft的高度 和 几云 积雨云在1.500 ft的高度。 破损或更高的上限为500 ft。

当前天气为光 雨。 温度和风寒是20 °C。 露点为20 °C,相对湿度为100%。 海平面上的气压为1011 hPa (QNH)。

发展趋势

  • 暂时的

    可变方向的风很小或没有。 可见性变为2,5 km。 重大天气:阵雨 雨, 雨。 几云在400 ft的高度, 疏云,零星散落的云朵在600 ft的高度 和 疏云,零星散落的云朵 积雨云在5.000 ft的高度.

白天

今天,太阳从06:25升起,在20:55降落。 这适用于De Peel Air Base,世界夏令时可能有所不同。 当地时间与世界标准时间之间的时差为+2 小时。 夏令时目前正在进行中。

公司介绍

我们没有关于这个机场的公司信息。

体会

到Vliegles.nl去找飞行课程,跳伞和其他飞行体验。 浏览页面,了解De Peel Air Base附近所有可用的活动。 你也可以使用搜索功能来寻找你所在地附近的特定飞行课程、跳伞或其他飞行体验。

跑道

Id 标题 侧风 逆风 侧风 %
6/24 060°-240° 3 kt 1 kt 94 %

逆风成分最大的方向会被突出显示,并用于横风计算。 这并不一定意味着这个方向在使用。

乌云

300 ft FEW 几云
400 ft SCT 疏云,零星散落的云朵
500 ft BKN 碎云
1.500 ft FEW 几云 积雨云
400 ft FEW 暂时的 几云
600 ft SCT 暂时的 疏云,零星散落的云朵
5.000 ft SCT 暂时的 疏云,零星散落的云朵 积雨云

温度 & 天气

天气 光 雨
温度 20 °C
露点 20 °C
相对湿度 100%
Kp-index 1  

白天

日出
06:27
中午
13:42
日落
20:57 (5h 02m)

小工具

你想在你的网站上有一个关于De Peel Air Base的当前航空天气(METAR)的小部件吗?

</> 显示HTML代码

我们和第三方通过cookies跟踪您在我们网站上的上网行为。如果您继续,我们认为您同意我们的cookie政策。 了解更多